createdAt,value
2022-12-05T00:01:08.186Z,1.3
2022-12-05T00:02:16.899Z,1.3
2022-12-05T00:03:26.568Z,1.1
2022-12-05T00:04:35.286Z,1.4
2022-12-05T00:05:44.896Z,1.3
2022-12-05T00:06:53.567Z,1.7
2022-12-05T00:08:02.405Z,1.4
2022-12-05T00:09:10.978Z,1
2022-12-05T00:10:18.632Z,1.6
2022-12-05T00:11:28.289Z,1.2
2022-12-05T00:12:37.954Z,1.5
2022-12-05T00:13:47.635Z,1.6
2022-12-05T00:14:57.321Z,1.7
2022-12-05T00:16:05.983Z,1.7
2022-12-05T00:17:15.655Z,1.4
2022-12-05T00:18:25.342Z,1.4
2022-12-05T00:19:34.042Z,1.6
2022-12-05T00:20:42.678Z,1.5
2022-12-05T00:21:52.406Z,1.4
2022-12-05T00:23:02.065Z,1.2
2022-12-05T00:24:11.731Z,1
2022-12-05T00:25:20.387Z,1.1
2022-12-05T00:26:30.057Z,0.9
2022-12-05T00:27:38.728Z,1.3
2022-12-05T00:28:47.400Z,1.2
2022-12-05T00:29:57.285Z,1.5
2022-12-05T00:31:04.729Z,1.1
2022-12-05T00:32:14.560Z,1.1
2022-12-05T00:33:24.118Z,1.4
2022-12-05T00:34:31.771Z,1.1
2022-12-05T00:35:41.452Z,1.3
2022-12-05T00:36:51.093Z,1.6
2022-12-05T00:37:58.779Z,1.1
2022-12-05T00:39:08.469Z,1.5
2022-12-05T00:40:17.118Z,1.6
2022-12-05T00:41:25.774Z,1.2
2022-12-05T00:42:35.442Z,1.4
2022-12-05T00:43:43.147Z,1.3
2022-12-05T00:44:52.791Z,1.5
2022-12-05T00:46:02.557Z,1.4
2022-12-05T00:47:11.155Z,1.2
2022-12-05T00:48:20.818Z,1.3
2022-12-05T00:49:30.530Z,0.9
2022-12-05T00:50:39.196Z,1.5
2022-12-05T00:51:48.890Z,1.1
2022-12-05T00:52:57.525Z,1.3
2022-12-05T00:54:07.345Z,1.1
2022-12-05T00:55:17.024Z,1.3
2022-12-05T00:56:24.687Z,1.1
2022-12-05T00:57:34.358Z,1.1
2022-12-05T00:58:42.013Z,1.3
2022-12-05T00:59:50.687Z,1.4
2022-12-05T01:01:00.434Z,1.3
2022-12-05T01:02:08.044Z,1.3
2022-12-05T01:03:17.753Z,1.3
2022-12-05T01:04:27.360Z,1.3
2022-12-05T01:05:36.085Z,1
2022-12-05T01:06:45.774Z,1.4
2022-12-05T01:07:55.529Z,1.2
2022-12-05T01:09:04.102Z,1.3
2022-12-05T01:10:13.765Z,1.2
2022-12-05T01:11:22.428Z,1.2
2022-12-05T01:12:32.101Z,1
2022-12-05T01:13:40.772Z,1.2
2022-12-05T01:14:48.430Z,1.4
2022-12-05T01:15:59.104Z,1
2022-12-05T01:17:08.820Z,1.5
2022-12-05T01:18:16.434Z,1.4
2022-12-05T01:19:25.098Z,1.3
2022-12-05T01:20:33.783Z,1.4
2022-12-05T01:21:43.490Z,1.5
2022-12-05T01:22:53.146Z,1.5
2022-12-05T01:24:01.859Z,1.2
2022-12-05T01:25:11.540Z,1.4
2022-12-05T01:26:20.226Z,1.3
2022-12-05T01:27:28.868Z,1.7
2022-12-05T01:28:38.568Z,1.2
2022-12-05T01:29:46.189Z,1.3
2022-12-05T01:30:55.874Z,1.7
2022-12-05T01:32:04.598Z,1.6
2022-12-05T01:33:12.188Z,1
2022-12-05T01:34:21.850Z,1.3
2022-12-05T01:35:30.536Z,1.1
2022-12-05T01:36:39.279Z,1.5
2022-12-05T01:37:48.927Z,1
2022-12-05T01:38:56.578Z,1.4
2022-12-05T01:40:06.274Z,1.3
2022-12-05T01:41:15.933Z,1.6
2022-12-05T01:42:26.397Z,1.2
2022-12-05T01:43:35.235Z,1.4
2022-12-05T01:44:43.913Z,1.1
2022-12-05T01:45:52.644Z,1.7
2022-12-05T01:47:02.268Z,1.6
2022-12-05T01:48:09.932Z,1.1
2022-12-05T01:49:20.592Z,1.2
2022-12-05T01:50:29.246Z,1.6
2022-12-05T01:51:38.910Z,1.3
2022-12-05T01:52:48.622Z,1.2
2022-12-05T01:53:56.296Z,0.9
2022-12-05T01:55:04.981Z,1.8
2022-12-05T01:56:14.652Z,1.7
2022-12-05T01:57:24.327Z,1.6
2022-12-05T01:58:34.000Z,1
2022-12-05T01:59:42.637Z,1.4
2022-12-05T02:00:50.358Z,1.4
2022-12-05T02:02:00.044Z,1.3
2022-12-05T02:03:08.631Z,1.5
2022-12-05T02:04:17.316Z,1.6
2022-12-05T02:05:27.136Z,1.4
2022-12-05T02:06:35.711Z,1.5
2022-12-05T02:07:46.423Z,1.5
2022-12-05T02:08:55.019Z,1.3
2022-12-05T02:10:03.688Z,1.3
2022-12-05T02:11:13.344Z,1.6
2022-12-05T02:12:22.031Z,1.3
2022-12-05T02:13:30.651Z,1.6
2022-12-05T02:14:40.335Z,1.4
2022-12-05T02:15:51.120Z,1.4
2022-12-05T02:16:58.722Z,1.7
2022-12-05T02:18:07.354Z,1.5
2022-12-05T02:19:15.006Z,1.6
2022-12-05T02:20:24.672Z,1.5
2022-12-05T02:21:33.363Z,1.2
2022-12-05T02:22:43.027Z,1.5
2022-12-05T02:23:50.675Z,1.4
2022-12-05T02:24:59.324Z,1.7
2022-12-05T02:26:08.989Z,1.9
2022-12-05T02:27:16.661Z,1.3
2022-12-05T02:28:26.356Z,1.4
2022-12-05T02:29:36.021Z,1.2
2022-12-05T02:30:43.675Z,2.1
2022-12-05T02:31:53.432Z,1.3
2022-12-05T02:33:02.019Z,1.6
2022-12-05T02:34:11.692Z,1.6
2022-12-05T02:35:21.343Z,1.4
2022-12-05T02:36:29.017Z,1.7
2022-12-05T02:37:38.683Z,1.5
2022-12-05T02:38:47.398Z,1.5
2022-12-05T02:39:55.109Z,1.6
2022-12-05T02:41:04.712Z,1.2
2022-12-05T02:42:12.383Z,1.3
2022-12-05T02:43:21.063Z,2.1
2022-12-05T02:44:30.760Z,1.6
2022-12-05T02:45:39.433Z,1.7
2022-12-05T02:46:49.063Z,1.9
2022-12-05T02:47:57.757Z,1.5
2022-12-05T02:49:05.419Z,1.4
2022-12-05T02:50:15.160Z,2.1
2022-12-05T02:51:23.827Z,1.5
2022-12-05T02:52:32.498Z,1.3
2022-12-05T02:53:41.153Z,1.7
2022-12-05T02:54:48.808Z,1.4
2022-12-05T02:55:58.517Z,1.9
2022-12-05T02:57:07.199Z,1.2
2022-12-05T02:58:16.868Z,1.7
2022-12-05T02:59:26.510Z,1.6
2022-12-05T03:00:34.184Z,1.8
2022-12-05T03:01:42.870Z,1.2
2022-12-05T03:02:51.506Z,1.6
2022-12-05T03:03:59.225Z,1.6
2022-12-05T03:05:08.838Z,1.5
2022-12-05T03:06:17.493Z,1.5
2022-12-05T03:07:25.152Z,1.4
2022-12-05T03:08:34.841Z,1.3
2022-12-05T03:09:42.496Z,1.4
2022-12-05T03:10:52.160Z,1.5
2022-12-05T03:12:01.831Z,1.7
2022-12-05T03:13:09.549Z,1.8
2022-12-05T03:14:19.221Z,1.4
2022-12-05T03:15:28.874Z,1.1
2022-12-05T03:16:36.612Z,1.2
2022-12-05T03:17:46.186Z,1.5
2022-12-05T03:18:54.860Z,1.6
2022-12-05T03:20:04.520Z,1.4
2022-12-05T03:21:14.204Z,1.1
2022-12-05T03:22:21.852Z,1.2
2022-12-05T03:23:30.512Z,1.1
2022-12-05T03:24:40.187Z,1
2022-12-05T03:25:47.841Z,1.4
2022-12-05T03:26:57.530Z,0.9
2022-12-05T03:28:06.225Z,1.1
2022-12-05T03:29:14.878Z,1.3
2022-12-05T03:30:24.625Z,1.6
2022-12-05T03:31:32.243Z,1.6
2022-12-05T03:32:41.943Z,1.7
2022-12-05T03:33:51.595Z,1.6
2022-12-05T03:34:59.252Z,1.3
2022-12-05T03:36:08.935Z,1.3
2022-12-05T03:37:16.658Z,2.2
2022-12-05T03:38:25.358Z,2.1
2022-12-05T03:39:35.028Z,1.2
2022-12-05T03:40:42.700Z,1.5
2022-12-05T03:41:52.490Z,1.2
2022-12-05T03:43:00.156Z,2.1
2022-12-05T03:44:08.882Z,2.5
2022-12-05T03:45:18.546Z,2
2022-12-05T03:46:26.308Z,2.1
2022-12-05T03:47:34.926Z,1.5
2022-12-05T03:48:44.640Z,2
2022-12-05T03:49:54.278Z,1.5
2022-12-05T03:51:04.011Z,1.9
2022-12-05T03:52:12.669Z,1.7
2022-12-05T03:53:22.316Z,1.9
2022-12-05T03:54:31.987Z,1.7
2022-12-05T03:55:39.661Z,1.9
2022-12-05T03:56:48.321Z,1.9
2022-12-05T03:57:57.990Z,1.8
2022-12-05T03:59:06.708Z,2.4
2022-12-05T04:00:17.263Z,2.2
2022-12-05T04:01:26.992Z,1.6
2022-12-05T04:02:35.589Z,1.8
2022-12-05T04:03:45.331Z,2
2022-12-05T04:04:52.964Z,1.7
2022-12-05T04:06:01.623Z,1.4
2022-12-05T04:07:11.964Z,2
2022-12-05T04:08:20.669Z,1.6
2022-12-05T04:09:30.318Z,1.6
2022-12-05T04:10:38.985Z,1.6
2022-12-05T04:11:47.695Z,1.8
2022-12-05T04:12:57.370Z,1.3
2022-12-05T04:14:05.018Z,1.3
2022-12-05T04:15:13.768Z,1.3
2022-12-05T04:16:23.576Z,1.4
2022-12-05T04:17:33.152Z,1.3
2022-12-05T04:18:42.820Z,1.5
2022-12-05T04:19:49.474Z,1.2
2022-12-05T04:20:59.176Z,1.7
2022-12-05T04:22:09.806Z,1.4
2022-12-05T04:23:17.475Z,1.3
2022-12-05T04:24:27.156Z,1
2022-12-05T04:25:34.811Z,1.2
2022-12-05T04:26:43.485Z,1.2
2022-12-05T04:27:53.188Z,1.2
2022-12-05T04:29:00.856Z,1.3
2022-12-05T04:30:10.505Z,1.4
2022-12-05T04:31:20.204Z,1.5
2022-12-05T04:32:27.837Z,1.2
2022-12-05T04:33:37.537Z,1.5
2022-12-05T04:34:46.187Z,1.5
2022-12-05T04:35:54.854Z,1
2022-12-05T04:37:04.564Z,1.6
2022-12-05T04:38:14.224Z,1.1
2022-12-05T04:39:23.895Z,1.1
2022-12-05T04:40:32.546Z,1.4
2022-12-05T04:41:40.307Z,1.8
2022-12-05T04:42:49.992Z,1.1
2022-12-05T04:43:57.645Z,1.3
2022-12-05T04:45:06.390Z,1.6
2022-12-05T04:46:16.073Z,1.6
2022-12-05T04:47:24.700Z,1.3
2022-12-05T04:48:35.246Z,1.1
2022-12-05T04:49:45.953Z,1.2
2022-12-05T04:50:53.563Z,1.5
2022-12-05T04:52:03.234Z,1.1
2022-12-05T04:53:12.923Z,1.4
2022-12-05T04:54:21.565Z,1.2
2022-12-05T04:55:31.259Z,1.5
2022-12-05T04:56:39.930Z,1.3
2022-12-05T04:57:49.599Z,1.5
2022-12-05T04:58:58.252Z,1.3
2022-12-05T05:00:05.901Z,1.5
2022-12-05T05:01:15.659Z,1.2
2022-12-05T05:02:24.335Z,1.8
2022-12-05T05:03:32.964Z,1.4
2022-12-05T05:04:42.648Z,1.5
2022-12-05T05:05:52.319Z,1.4
2022-12-05T05:07:02.100Z,1.6
2022-12-05T05:08:12.580Z,1.5
2022-12-05T05:09:20.156Z,1.5
2022-12-05T05:10:29.813Z,1.7
2022-12-05T05:11:39.472Z,2
2022-12-05T05:12:48.135Z,2.2
2022-12-05T05:13:57.816Z,1.6
2022-12-05T05:15:06.480Z,1.5
2022-12-05T05:16:16.201Z,1.4
2022-12-05T05:17:25.813Z,1.8
2022-12-05T05:18:33.485Z,1.8
2022-12-05T05:19:43.175Z,1.4
2022-12-05T05:20:50.837Z,2.3
2022-12-05T05:21:59.481Z,1.4
2022-12-05T05:23:09.154Z,1.3
2022-12-05T05:24:16.809Z,1.5
2022-12-05T05:25:26.549Z,1.4
2022-12-05T05:26:36.206Z,1.6
2022-12-05T05:27:43.881Z,1.2
2022-12-05T05:28:53.556Z,1.5
2022-12-05T05:30:02.222Z,1.9
2022-12-05T05:31:10.970Z,1.9
2022-12-05T05:32:20.580Z,2.3
2022-12-05T05:33:29.255Z,2.1
2022-12-05T05:34:38.961Z,1.6
2022-12-05T05:35:47.628Z,1.3
2022-12-05T05:36:56.330Z,1.7
2022-12-05T05:38:05.986Z,1.5
2022-12-05T05:39:13.656Z,1.7
2022-12-05T05:40:22.330Z,1.8
2022-12-05T05:41:32.042Z,1.7
2022-12-05T05:42:40.673Z,1.4
2022-12-05T05:43:50.395Z,1.7
2022-12-05T05:44:59.060Z,1.4
2022-12-05T05:46:07.752Z,1.2
2022-12-05T05:47:17.393Z,1.5
2022-12-05T05:48:26.120Z,1.5
2022-12-05T05:49:34.828Z,1.6
2022-12-05T05:50:43.509Z,1.5
2022-12-05T05:51:51.155Z,1.7
2022-12-05T05:53:00.823Z,1.3
2022-12-05T05:54:09.517Z,1.4
2022-12-05T05:55:18.187Z,0.9
2022-12-05T05:56:27.847Z,1.2
2022-12-05T05:57:36.554Z,1.6
2022-12-05T05:58:46.189Z,1.1
2022-12-05T05:59:56.148Z,1.9
2022-12-05T06:01:05.628Z,1.6
2022-12-05T06:02:15.331Z,1.3
2022-12-05T06:03:25.107Z,1.3
2022-12-05T06:04:33.679Z,1.3
2022-12-05T06:05:44.124Z,1.1
2022-12-05T06:06:54.033Z,1.4
2022-12-05T06:08:02.804Z,1.2
2022-12-05T06:09:12.350Z,1.5
2022-12-05T06:10:21.016Z,1.9
2022-12-05T06:11:30.673Z,1.5
2022-12-05T06:12:39.399Z,1.3
2022-12-05T06:13:48.045Z,1.8
2022-12-05T06:14:57.711Z,1.5
2022-12-05T06:16:06.410Z,1.3
2022-12-05T06:17:16.107Z,1.7
2022-12-05T06:18:24.788Z,1.5
2022-12-05T06:19:34.461Z,1.3
2022-12-05T06:20:44.110Z,1.5
2022-12-05T06:21:52.770Z,1.2
2022-12-05T06:23:02.457Z,1.3
2022-12-05T06:24:11.103Z,1.6
2022-12-05T06:25:19.762Z,1.7
2022-12-05T06:26:29.428Z,1.6
2022-12-05T06:27:37.102Z,1.4
2022-12-05T06:28:46.915Z,1.5
2022-12-05T06:29:56.845Z,1.1
2022-12-05T06:31:04.473Z,1.5
2022-12-05T06:32:14.100Z,1.5
2022-12-05T06:33:22.753Z,1
2022-12-05T06:34:31.430Z,1.3
2022-12-05T06:35:41.121Z,1
2022-12-05T06:36:49.794Z,1.2
2022-12-05T06:37:58.470Z,1.1
2022-12-05T06:39:08.156Z,1.3
2022-12-05T06:40:17.853Z,1.6
2022-12-05T06:41:26.520Z,1.6
2022-12-05T06:42:35.249Z,1.8
2022-12-05T06:43:43.849Z,1.3
2022-12-05T06:44:53.551Z,1.1
2022-12-05T06:46:03.279Z,1
2022-12-05T06:47:11.874Z,1.1
2022-12-05T06:48:21.536Z,1.5
2022-12-05T06:49:34.907Z,1.4
2022-12-05T06:50:41.848Z,1.4
2022-12-05T06:51:50.606Z,1.3
2022-12-05T06:52:59.290Z,1.4
2022-12-05T06:54:08.953Z,1.4
2022-12-05T06:55:17.605Z,1.1
2022-12-05T06:56:27.297Z,1.5
2022-12-05T06:57:36.964Z,1.3
2022-12-05T06:58:44.611Z,1.4
2022-12-05T06:59:53.285Z,1
2022-12-05T07:01:02.093Z,1.3
2022-12-05T07:02:10.651Z,1.3
2022-12-05T07:03:20.290Z,1.5
2022-12-05T07:04:28.951Z,1.8
2022-12-05T07:05:36.612Z,1.7
2022-12-05T07:06:50.390Z,2
2022-12-05T07:07:55.030Z,1.2
2022-12-05T07:09:04.627Z,1.2
2022-12-05T07:10:14.280Z,1.5
2022-12-05T07:11:20.926Z,1.5
2022-12-05T07:12:30.591Z,1.3
2022-12-05T07:13:38.241Z,1.2
2022-12-05T07:14:49.215Z,1.4
2022-12-05T07:15:58.599Z,1.6
2022-12-05T07:17:07.295Z,1.6
2022-12-05T07:18:16.929Z,1.4
2022-12-05T07:19:25.584Z,1.4
2022-12-05T07:20:49.436Z,1.2
2022-12-05T07:21:45.920Z,1.3
2022-12-05T07:22:53.582Z,1.7
2022-12-05T07:24:02.240Z,1.2
2022-12-05T07:25:11.893Z,1.3
2022-12-05T07:26:19.578Z,1
2022-12-05T07:27:29.223Z,1.5
2022-12-05T07:28:38.956Z,1.3
2022-12-05T07:29:47.632Z,1.7
2022-12-05T07:30:57.300Z,1.2
2022-12-05T07:32:06.082Z,1.3
2022-12-05T07:33:15.752Z,1.3
2022-12-05T07:34:25.401Z,1.1
2022-12-05T07:35:33.076Z,1.2
2022-12-05T07:36:42.736Z,1.5
2022-12-05T07:37:52.437Z,1.2
2022-12-05T07:39:01.087Z,1.3
2022-12-05T07:40:10.754Z,1.3
2022-12-05T07:41:19.430Z,1.6
2022-12-05T07:42:29.103Z,1.4
2022-12-05T07:43:38.834Z,1.5
2022-12-05T07:44:47.509Z,1.4
2022-12-05T07:45:57.211Z,1.4
2022-12-05T07:47:05.837Z,1.4
2022-12-05T07:48:18.449Z,1
2022-12-05T07:49:26.173Z,1.3
2022-12-05T07:50:35.832Z,1.1
2022-12-05T07:51:44.513Z,1.1
2022-12-05T07:52:54.188Z,1.3
2022-12-05T07:54:02.875Z,1.1
2022-12-05T07:55:12.589Z,1.7
2022-12-05T07:56:21.239Z,1.5
2022-12-05T07:57:28.897Z,1.7
2022-12-05T07:58:38.561Z,1.2
2022-12-05T07:59:46.242Z,1.4
2022-12-05T08:00:54.968Z,1.2
2022-12-05T08:02:03.705Z,1.5
2022-12-05T08:03:11.262Z,1.6
2022-12-05T08:04:20.909Z,1.8
2022-12-05T08:05:29.620Z,1.2
2022-12-05T08:06:39.286Z,1.5
2022-12-05T08:07:49.017Z,1.5
2022-12-05T08:08:58.784Z,1.4
2022-12-05T08:10:07.533Z,1.6
2022-12-05T08:11:17.223Z,1.3
2022-12-05T08:12:26.905Z,1.5
2022-12-05T08:13:36.582Z,2
2022-12-05T08:14:46.245Z,2.1
2022-12-05T08:15:55.904Z,1.8
2022-12-05T08:17:05.607Z,2.1
2022-12-05T08:18:14.274Z,1.8
2022-12-05T08:19:24.002Z,1.9
2022-12-05T08:20:32.795Z,2
2022-12-05T08:21:42.333Z,1.6
2022-12-05T08:22:50.998Z,1.4
2022-12-05T08:23:58.682Z,1.4
2022-12-05T08:25:08.347Z,2.1
2022-12-05T08:26:17.002Z,1.5
2022-12-05T08:27:24.676Z,1.3
2022-12-05T08:28:34.370Z,1.7
2022-12-05T08:29:42.040Z,1.6
2022-12-05T08:30:50.722Z,1.4
2022-12-05T08:32:00.389Z,1.5
2022-12-05T08:33:08.054Z,1.5
2022-12-05T08:34:17.719Z,1.3
2022-12-05T08:35:26.422Z,1.8
2022-12-05T08:36:36.143Z,1.9
2022-12-05T08:37:45.782Z,1.4
2022-12-05T08:38:55.437Z,1.3
2022-12-05T08:40:04.099Z,1.4
2022-12-05T08:41:13.791Z,1.6
2022-12-05T08:42:21.435Z,1.8
2022-12-05T08:43:31.106Z,1.3
2022-12-05T08:44:39.772Z,1.4
2022-12-05T08:45:48.517Z,1.8
2022-12-05T08:46:58.187Z,1.7
2022-12-05T08:48:05.861Z,1.3
2022-12-05T08:49:14.525Z,1.3
2022-12-05T08:50:24.199Z,1.8
2022-12-05T08:51:32.841Z,2
2022-12-05T08:52:42.642Z,1.8
2022-12-05T08:53:52.225Z,1.8
2022-12-05T08:55:01.070Z,1.5
2022-12-05T08:56:09.587Z,1.3
2022-12-05T08:57:17.242Z,1.3
2022-12-05T08:58:25.977Z,1.5
2022-12-05T08:59:35.639Z,1.4
2022-12-05T09:00:44.310Z,1.7
2022-12-05T09:01:54.000Z,1.7
2022-12-05T09:03:02.737Z,1.3
2022-12-05T09:04:10.316Z,1.6
2022-12-05T09:05:28.015Z,1.8
2022-12-05T09:06:29.654Z,1.4
2022-12-05T09:07:39.319Z,1.4
2022-12-05T09:08:48.993Z,1.1
2022-12-05T09:09:58.650Z,1.6
2022-12-05T09:11:08.321Z,1.5
2022-12-05T09:12:17.006Z,1.4
2022-12-05T09:13:24.667Z,1.3
2022-12-05T09:14:34.368Z,1.2
2022-12-05T09:15:42.152Z,2.3
2022-12-05T09:16:51.774Z,2.1
2022-12-05T09:18:01.442Z,2.1
2022-12-05T09:19:10.123Z,1.6
2022-12-05T09:20:19.796Z,2.4
2022-12-05T09:21:28.484Z,1.5
2022-12-05T09:22:37.150Z,1.8
2022-12-05T09:23:46.823Z,1.9
2022-12-05T09:24:54.509Z,2.1
2022-12-05T09:26:03.143Z,1.8
2022-12-05T09:27:12.855Z,1.8
2022-12-05T09:28:21.519Z,1.8
2022-12-05T09:29:31.187Z,2
2022-12-05T09:30:40.904Z,1.5
2022-12-05T09:31:48.584Z,1.9
2022-12-05T09:32:58.190Z,1.6
2022-12-05T09:34:06.856Z,1.7
2022-12-05T09:35:15.516Z,2.6
2022-12-05T09:36:25.186Z,1.6
2022-12-05T09:37:39.488Z,2.1
2022-12-05T09:38:45.527Z,1.6
2022-12-05T09:39:54.184Z,2.2
2022-12-05T09:41:01.862Z,1.6
2022-12-05T09:42:11.523Z,1.7
2022-12-05T09:43:21.218Z,1.2
2022-12-05T09:44:29.909Z,1.6
2022-12-05T09:45:39.571Z,1.7
2022-12-05T09:46:47.240Z,1.6
2022-12-05T09:47:56.917Z,1.4
2022-12-05T09:49:06.602Z,1.3
2022-12-05T09:50:15.292Z,1.9
2022-12-05T09:51:24.965Z,1.6
2022-12-05T09:52:32.621Z,1.9
2022-12-05T09:53:41.293Z,2.3
2022-12-05T09:54:50.972Z,1.9
2022-12-05T09:55:58.647Z,1.8
2022-12-05T09:57:08.361Z,1.5
2022-12-05T09:58:17.988Z,1.9
2022-12-05T09:59:26.648Z,2
2022-12-05T10:00:36.349Z,1.8
2022-12-05T10:01:44.172Z,1.4
2022-12-05T10:02:53.752Z,1.7
2022-12-05T10:04:02.418Z,2.1
2022-12-05T10:05:11.147Z,2
2022-12-05T10:06:20.733Z,1.5
2022-12-05T10:07:30.505Z,1.8
2022-12-05T10:08:39.105Z,1.8
2022-12-05T10:09:48.764Z,1.5
2022-12-05T10:10:56.486Z,1.5
2022-12-05T10:12:05.156Z,1.7
2022-12-05T10:13:14.891Z,1.7
2022-12-05T10:14:23.531Z,2
2022-12-05T10:15:33.219Z,1.8
2022-12-05T10:16:41.975Z,1.6
2022-12-05T10:17:51.551Z,1.8
2022-12-05T10:19:01.226Z,1.5
2022-12-05T10:20:09.894Z,2.1
2022-12-05T10:21:19.551Z,2
2022-12-05T10:22:27.204Z,2.1
2022-12-05T10:24:47.541Z,1.9
2022-12-05T10:25:56.223Z,1.8
2022-12-05T10:27:05.905Z,1.4
2022-12-05T10:28:15.569Z,1.9
2022-12-05T10:29:24.272Z,1.3
2022-12-05T10:30:34.023Z,2.4
2022-12-05T10:31:42.702Z,1.6
2022-12-05T10:32:51.294Z,1.8
2022-12-05T10:34:00.977Z,1.7
2022-12-05T10:35:08.663Z,2
2022-12-05T10:36:18.351Z,1.6
2022-12-05T10:37:27.010Z,1.2
2022-12-05T10:38:35.666Z,1.6
2022-12-05T10:39:45.335Z,1.8
2022-12-05T10:40:51.997Z,1.6
2022-12-05T10:42:01.727Z,1.6
2022-12-05T10:43:11.382Z,1.9
2022-12-05T10:44:20.051Z,1.9
2022-12-05T10:45:29.740Z,1.4
2022-12-05T10:46:39.439Z,1.6
2022-12-05T10:47:47.114Z,1.7
2022-12-05T10:48:56.786Z,1.6
2022-12-05T10:50:05.458Z,1.8
2022-12-05T10:51:14.121Z,2.2
2022-12-05T10:52:23.788Z,2
2022-12-05T10:53:31.502Z,1.5
2022-12-05T10:54:41.161Z,1.2
2022-12-05T10:56:21.852Z,1.6
2022-12-05T10:56:59.450Z,1.4
2022-12-05T10:58:12.671Z,1.6
2022-12-05T10:59:18.785Z,1.6
2022-12-05T11:00:28.454Z,1.2
2022-12-05T11:01:37.177Z,2
2022-12-05T11:02:45.772Z,2.1
2022-12-05T11:03:55.441Z,1.6
2022-12-05T11:05:05.304Z,1.4
2022-12-05T11:06:13.804Z,1.8
2022-12-05T11:07:23.487Z,1.4
2022-12-05T11:09:02.322Z,2.3
2022-12-05T11:09:42.792Z,1.9
2022-12-05T11:10:51.489Z,2
2022-12-05T11:11:59.240Z,2.2
2022-12-05T11:13:08.893Z,3
2022-12-05T11:14:17.539Z,2.6
2022-12-05T11:15:27.224Z,3.1
2022-12-05T11:16:36.973Z,2.8
2022-12-05T11:17:45.602Z,3.1
2022-12-05T11:18:55.240Z,2.6
2022-12-05T11:20:04.912Z,2.6
2022-12-05T11:21:12.584Z,3.2
2022-12-05T11:22:22.302Z,3.2
2022-12-05T11:23:30.956Z,3.8
2022-12-05T11:24:39.626Z,3.1
2022-12-05T11:25:49.293Z,3.1
2022-12-05T11:26:56.943Z,2.9
2022-12-05T11:28:05.637Z,2.4
2022-12-05T11:29:15.287Z,2.3
2022-12-05T11:30:22.942Z,1.9
2022-12-05T11:31:32.649Z,1.7
2022-12-05T11:32:41.307Z,1.5
2022-12-05T11:33:49.990Z,1.8
2022-12-05T11:34:59.982Z,1.2
2022-12-05T11:36:08.321Z,1.4
2022-12-05T11:37:17.996Z,1.3
2022-12-05T11:38:27.670Z,1.5
2022-12-05T11:39:37.373Z,1.3
2022-12-05T11:40:47.047Z,1.5
2022-12-05T11:41:55.723Z,1.3
2022-12-05T11:43:04.386Z,1.2
2022-12-05T11:44:14.046Z,1.8
2022-12-05T11:45:21.719Z,1.3
2022-12-05T11:46:30.410Z,1.4
2022-12-05T11:47:40.049Z,1.5
2022-12-05T11:48:48.730Z,1.3
2022-12-05T11:49:58.422Z,1.3
2022-12-05T11:51:08.071Z,1.5
2022-12-05T11:52:16.732Z,1.5
2022-12-05T11:53:26.423Z,1.4
2022-12-05T11:55:03.732Z,1.3
2022-12-05T11:55:46.733Z,1.3
2022-12-05T11:56:56.423Z,1.3
2022-12-05T11:58:04.077Z,1.9
2022-12-05T11:59:13.780Z,1.5
2022-12-05T12:00:23.421Z,1.7
2022-12-05T12:01:32.130Z,1.5
2022-12-05T12:02:41.933Z,1.7
2022-12-05T12:03:49.613Z,1.8
2022-12-05T12:04:58.393Z,2
2022-12-05T12:06:07.872Z,1.9
2022-12-05T12:07:16.518Z,1.8
2022-12-05T12:08:26.290Z,1.7
2022-12-05T12:09:34.939Z,1.9
2022-12-05T12:10:43.590Z,1.8
2022-12-05T12:11:52.255Z,1.4
2022-12-05T12:12:59.903Z,1.8
2022-12-05T12:14:08.590Z,2
2022-12-05T12:15:16.241Z,2.2
2022-12-05T12:16:24.941Z,1.9
2022-12-05T12:17:34.598Z,1.9
2022-12-05T12:18:43.289Z,1.9
2022-12-05T12:19:52.973Z,1.8
2022-12-05T12:21:02.632Z,1.9
2022-12-05T12:22:11.422Z,2
2022-12-05T12:23:20.975Z,1.8
2022-12-05T12:24:30.642Z,1.5
2022-12-05T12:25:39.319Z,1.6
2022-12-05T12:26:48.990Z,1.4
2022-12-05T12:28:04.141Z,1.5
2022-12-05T12:29:09.281Z,1.5
2022-12-05T12:30:18.949Z,2.1
2022-12-05T12:31:27.752Z,1.6
2022-12-05T12:32:37.388Z,1.1
2022-12-05T12:33:46.049Z,1.5
2022-12-05T12:34:55.849Z,1.9
2022-12-05T12:36:05.401Z,2.1
2022-12-05T12:37:14.133Z,1.6
2022-12-05T12:38:24.739Z,1.9
2022-12-05T12:39:33.400Z,2.1
2022-12-05T12:40:42.065Z,2.2
2022-12-05T12:41:51.775Z,1.7
2022-12-05T12:42:59.441Z,1.8
2022-12-05T12:44:09.143Z,1.2
2022-12-05T12:45:18.777Z,1.8
2022-12-05T12:46:28.524Z,1.8
2022-12-05T12:47:38.152Z,1.7
2022-12-05T12:48:46.830Z,1.2
2022-12-05T12:49:55.493Z,1.4
2022-12-05T12:51:05.157Z,1.5
2022-12-05T12:52:12.821Z,1.7
2022-12-05T12:53:21.567Z,1.9
2022-12-05T12:54:55.128Z,1.4
2022-12-05T12:55:41.834Z,0.9
2022-12-05T12:56:51.509Z,1.6
2022-12-05T12:58:00.191Z,1.3
2022-12-05T12:59:08.848Z,1.5
2022-12-05T13:00:18.539Z,1.1
2022-12-05T13:01:27.337Z,1.5
2022-12-05T13:02:36.051Z,1.6
2022-12-05T13:03:50.011Z,1.4
2022-12-05T13:04:54.311Z,1.1
2022-12-05T13:06:04.002Z,1.5
2022-12-05T13:07:12.655Z,1.3
2022-12-05T13:08:20.376Z,1.3
2022-12-05T13:09:29.998Z,1.4
2022-12-05T13:10:38.655Z,1.2
2022-12-05T13:11:48.383Z,1.9
2022-12-05T13:12:58.056Z,1.1
2022-12-05T13:14:06.706Z,1.2
2022-12-05T13:15:16.386Z,1.4
2022-12-05T13:16:26.096Z,1.2
2022-12-05T13:17:33.724Z,0.8
2022-12-05T13:18:43.427Z,0.9
2022-12-05T13:19:52.091Z,1.4
2022-12-05T13:21:00.769Z,0.9
2022-12-05T13:22:11.426Z,1.3
2022-12-05T13:23:20.146Z,1
2022-12-05T13:24:29.839Z,0.8
2022-12-05T13:25:38.508Z,0.7
2022-12-05T13:26:47.182Z,1
2022-12-05T13:27:56.871Z,0.9
2022-12-05T13:29:04.560Z,0.9
2022-12-05T13:30:14.195Z,1
2022-12-05T13:31:23.962Z,1
2022-12-05T13:32:31.515Z,0.8
2022-12-05T13:33:41.200Z,1.7
2022-12-05T13:34:49.865Z,0.9
2022-12-05T13:35:58.542Z,1.1
2022-12-05T13:37:08.224Z,1.1
2022-12-05T13:38:15.900Z,0.9
2022-12-05T13:39:24.611Z,1
2022-12-05T13:40:33.288Z,1.1
2022-12-05T13:41:41.968Z,1.4
2022-12-05T13:42:51.636Z,1.6
2022-12-05T13:44:06.510Z,1.8
2022-12-05T13:45:09.961Z,1.6
2022-12-05T13:46:19.691Z,2.3
2022-12-05T13:47:29.347Z,2.2
2022-12-05T13:48:37.991Z,2.5
2022-12-05T13:49:47.653Z,2.3
2022-12-05T13:50:56.322Z,2.7
2022-12-05T13:52:06.060Z,1.9
2022-12-05T13:53:14.768Z,2.8
2022-12-05T13:54:23.469Z,3.2
2022-12-05T13:55:36.107Z,3
2022-12-05T13:56:41.796Z,3.7
2022-12-05T13:57:50.605Z,3.1
2022-12-05T13:59:00.354Z,3.2
2022-12-05T14:00:10.038Z,3.8
2022-12-05T14:01:19.715Z,4.1
2022-12-05T14:02:28.450Z,4.3
2022-12-05T14:03:36.085Z,2.7
2022-12-05T14:04:45.751Z,2.3
2022-12-05T14:05:53.442Z,2
2022-12-05T14:07:02.082Z,2.1
2022-12-05T14:08:11.778Z,1.9
2022-12-05T14:09:20.442Z,1.5
2022-12-05T14:10:30.104Z,1.4
2022-12-05T14:11:38.769Z,1.9
2022-12-05T14:12:48.427Z,2.1
2022-12-05T14:14:03.908Z,2.1
2022-12-05T14:15:06.771Z,2
2022-12-05T14:16:16.522Z,1.5
2022-12-05T14:17:24.156Z,1.1
2022-12-05T14:18:32.827Z,1
2022-12-05T14:19:42.500Z,1.7
2022-12-05T14:20:51.190Z,1.1
2022-12-05T14:21:59.857Z,1.1
2022-12-05T14:23:09.531Z,1.4
2022-12-05T14:24:17.192Z,1
2022-12-05T14:25:26.868Z,1.7
2022-12-05T14:26:35.557Z,0.8
2022-12-05T14:27:44.252Z,1.4
2022-12-05T14:28:53.913Z,1
2022-12-05T14:30:02.628Z,1.2
2022-12-05T14:31:12.321Z,1.2
2022-12-05T14:32:22.007Z,1.4
2022-12-05T14:33:28.659Z,1.5
2022-12-05T14:34:38.340Z,1.5
2022-12-05T14:35:45.984Z,1.4
2022-12-05T14:36:54.664Z,1.4
2022-12-05T14:38:04.360Z,1.3
2022-12-05T14:39:13.037Z,1.5
2022-12-05T14:40:22.708Z,1.4
2022-12-05T14:41:31.358Z,1.3
2022-12-05T14:42:40.052Z,1.1
2022-12-05T14:43:48.702Z,1.1
2022-12-05T14:44:57.396Z,1.3
2022-12-05T14:46:07.155Z,1.3
2022-12-05T14:47:16.725Z,1.5
2022-12-05T14:48:26.394Z,1
2022-12-05T14:49:37.679Z,1.3
2022-12-05T14:50:45.768Z,1.6
2022-12-05T14:51:54.521Z,1.5
2022-12-05T14:53:04.202Z,1.6
2022-12-05T14:54:11.862Z,1.7
2022-12-05T14:55:26.595Z,1.7
2022-12-05T14:56:31.286Z,1.6
2022-12-05T14:57:38.970Z,1.3
2022-12-05T14:58:48.646Z,1.5
2022-12-05T14:59:57.654Z,1.2
2022-12-05T15:01:06.038Z,2
2022-12-05T15:02:14.697Z,1.3
2022-12-05T15:03:24.334Z,0.9
2022-12-05T15:04:33.015Z,1.3
2022-12-05T15:05:42.647Z,1.4
2022-12-05T15:06:50.330Z,1.5
2022-12-05T15:08:00.085Z,1.1
2022-12-05T15:09:35.780Z,1.3
2022-12-05T15:10:18.348Z,1
2022-12-05T15:11:28.082Z,1.5
2022-12-05T15:12:35.756Z,1.4
2022-12-05T15:13:44.423Z,1.1
2022-12-05T15:14:54.094Z,1.8
2022-12-05T15:16:01.810Z,0.9
2022-12-05T15:17:11.434Z,1.6
2022-12-05T15:18:21.148Z,1
2022-12-05T15:19:29.792Z,1.5
2022-12-05T15:20:40.804Z,1.3
2022-12-05T15:21:48.076Z,0.9
2022-12-05T15:22:56.733Z,1.4
2022-12-05T15:24:06.424Z,1.3
2022-12-05T15:25:14.084Z,1.4
2022-12-05T15:26:45.927Z,1.2
2022-12-05T15:27:33.429Z,1.4
2022-12-05T15:28:42.085Z,1.2
2022-12-05T15:29:51.771Z,1.3
2022-12-05T15:30:59.455Z,1.1
2022-12-05T15:32:08.078Z,1.2
2022-12-05T15:33:17.754Z,0.7
2022-12-05T15:34:25.438Z,2.1
2022-12-05T15:35:35.109Z,1.3
2022-12-05T15:36:44.796Z,1.1
2022-12-05T15:37:53.458Z,1.3
2022-12-05T15:39:03.143Z,1.2
2022-12-05T15:40:10.791Z,1.4
2022-12-05T15:41:19.483Z,1.2
2022-12-05T15:42:30.065Z,1.5
2022-12-05T15:43:38.766Z,1.2
2022-12-05T15:44:48.471Z,1.5
2022-12-05T15:45:57.128Z,0.9
2022-12-05T15:47:05.787Z,1.2
2022-12-05T15:48:21.265Z,1.4
2022-12-05T15:49:25.087Z,1.2
2022-12-05T15:50:34.777Z,1.2
2022-12-05T15:51:44.421Z,0.7
2022-12-05T15:52:53.106Z,1.2
2022-12-05T15:54:02.793Z,1.2
2022-12-05T15:55:12.450Z,1.4
2022-12-05T15:56:20.178Z,1.2